KOSC/OSC METAR and TAF weather

Enter ICAO airport designator
Station Type Date Time Source
KOSC METAR 2021/07/30 22:55 UTC NOAA

KOSC 302255Z AUTO 11005KT 10SM CLR 18/09 A3009 RMK AO2 T01790091


Station Type Date Time Source
KOSC Decoded METAR 2021/07/30 22:55 UTC NOAA

Oscoda, Oscoda-Wurtsmith Airport, MI, United States (KOSC) 44-27N 083-22W
Jul 30, 2021 - 06:55 PM EDT / 2021.07.30 2255 UTC
Wind: from the ESE (110 degrees) at 6 MPH (5 KT):0
Visibility: 10 mile(s):0
Sky conditions: clear
Temperature: 64.2 F (17.9 C)
Dew Point: 48.4 F (9.1 C)
Relative Humidity: 56%
Pressure (altimeter): 30.09 in. Hg (1018 hPa)
ob: KOSC 302255Z AUTO 11005KT 10SM CLR 18/09 A3009 RMK AO2 T01790091
cycle: 23

Station Type Date Time Source
KOSC TAF UTC NOAA

Error!

Example: see airport list